7L2

Linton Municipal Airport

Linton, North Dakota, USA
METAR K7L2 181335Z AUTO 08012KT 1 1/2SM -SN M14/M17 A3017 RMK AO2
Observed Flight Rules
Jan-18 @ 13:35 UTC (11 minutes ago)
Wind Visibility Conditions
80° at 12 knots 1 1/2 miles
  • Light Snow
Temperatures Readings
Current -14°C / 7°F
Dewpoint -17°C / 1°F
Humidity 78%
Altimeter 30.17" Hg
Pressure 1021.72 hPa
Elevation 543
METAR K7L2 181335Z AUTO 08012KT 1 1/2SM -SN M14/M17 A3017 RMK AO2
Observed Flight Rules
Jan-18 @ 13:35 UTC
(11 minutes ago)
Wind Visibility
80° at 12 knots 1 1/2 miles
Conditions
  • Light Snow
Temperature Dewpoint
-14°C / 7°F -17°C / 1°F
Humidity Altimeter Pressure
78% 30.17" Hg 1021.72 hPa